Raylah — MFYK2 — position and weather

sailwx.info

Track history (hours):
 
Tides and Currents Weather Stations Pressure Air Temp Water Temp Dewpoint Dewpoint Depression Visibility Wind Speed Wind Dir Waves Ship Positions

Raylah

Last reported at 2017-Mar-11 19:32 UTC. Time now 2017-Mar-30 16:32 UTC.
Position N 25°43' W 080°11'.
Warning: this ship's position is 18 days out of date.

Length 13 m.

Type: Pleasure craft. MMSI: 235020483.

Date/timePositionNaut miles runAvg speedWind from/ knotsBaromVisibWave heightAir tempDewpointWater temp
2017-Mar-11 19:32N 25°43' W 080°11'4 4.2
2017-Mar-11 18:33N 25°47' W 080°11'2 2.2
2017-Mar-11 17:33N 25°46' W 080°09'4 3.8
2017-Mar-11 16:32N 25°43' W 080°07'5 5.0
2017-Mar-11 15:33N 25°40' W 080°11'2 2.3
2017-Mar-11 14:32N 25°42' W 080°11'0 0.0
2017-Mar-11 13:32N 25°42' W 080°11'0 0.0
2017-Mar-11 12:29N 25°42' W 080°11'0 0.0
2017-Mar-10 22:13N 25°42' W 080°11'0 0.3
2017-Mar-10 21:33N 25°42' W 080°11'1 1.0
2017-Mar-10 20:31N 25°43' W 080°11'  
Track history (hours):
 
Tides and Currents Weather Stations Pressure Air Temp Water Temp Dewpoint Dewpoint Depression Visibility Wind Speed Wind Dir Waves Ship Positions

Raylah

Last reported at 2017-Mar-11 19:32 UTC. Time now 2017-Mar-30 16:32 UTC.
Position N 25°43' W 080°11'.
Warning: this ship's position is 18 days out of date.

Length 13 m.

Type: Pleasure craft. MMSI: 235020483.

Date/timePositionNaut miles runAvg speedWind from/ knotsBaromVisibWave heightAir tempDewpointWater temp
2017-Mar-11 19:32N 25°43' W 080°11'4 4.2
2017-Mar-11 18:33N 25°47' W 080°11'2 2.2
2017-Mar-11 17:33N 25°46' W 080°09'4 3.8
2017-Mar-11 16:32N 25°43' W 080°07'5 5.0
2017-Mar-11 15:33N 25°40' W 080°11'2 2.3
2017-Mar-11 14:32N 25°42' W 080°11'0 0.0
2017-Mar-11 13:32N 25°42' W 080°11'0 0.0
2017-Mar-11 12:29N 25°42' W 080°11'0 0.0
2017-Mar-10 22:13N 25°42' W 080°11'0 0.3
2017-Mar-10 21:33N 25°42' W 080°11'1 1.0
2017-Mar-10 20:31N 25°43' W 080°11'  

Dump ship's entire track history